sensor_id;sensor_type;location;lat;lon;timestamp;pressure;altitude;pressure_sealevel;temperature;humidity
55755;BME280;41674;52.290;-1.474;2024-03-06T00:01:18;101230.01;;;6.97;72.08
55755;BME280;41674;52.290;-1.474;2024-03-06T00:03:47;101232.16;;;7.61;71.20
55755;BME280;41674;52.290;-1.474;2024-03-06T00:06:16;101229.78;;;7.02;72.47
55755;BME280;41674;52.290;-1.474;2024-03-06T00:08:46;101228.53;;;7.48;70.19
55755;BME280;41674;52.290;-1.474;2024-03-06T00:11:15;101228.22;;;7.49;70.79
55755;BME280;41674;52.290;-1.474;2024-03-06T00:13:44;101232.20;;;6.55;72.91
55755;BME280;41674;52.290;-1.474;2024-03-06T00:16:13;101236.59;;;6.83;72.12
55755;BME280;41674;52.290;-1.474;2024-03-06T00:18:44;101238.06;;;6.27;73.78
55755;BME280;41674;52.290;-1.474;2024-03-06T00:21:12;101243.28;;;6.75;71.43
55755;BME280;41674;52.290;-1.474;2024-03-06T00:23:42;101255.27;;;5.93;74.02
55755;BME280;41674;52.290;-1.474;2024-03-06T00:26:14;101254.15;;;6.30;74.55
55755;BME280;41674;52.290;-1.474;2024-03-06T00:28:45;101254.65;;;5.98;72.92
55755;BME280;41674;52.290;-1.474;2024-03-06T00:31:09;101259.57;;;6.11;74.59
55755;BME280;41674;52.290;-1.474;2024-03-06T00:33:42;101250.32;;;6.74;71.89
55755;BME280;41674;52.290;-1.474;2024-03-06T00:36:10;101250.77;;;6.67;71.03
55755;BME280;41674;52.290;-1.474;2024-03-06T00:38:37;101251.42;;;7.20;68.70
55755;BME280;41674;52.290;-1.474;2024-03-06T00:41:07;101248.75;;;7.44;67.27
55755;BME280;41674;52.290;-1.474;2024-03-06T00:43:36;101252.94;;;6.96;67.48
55755;BME280;41674;52.290;-1.474;2024-03-06T00:46:05;101254.08;;;6.61;67.08
55755;BME280;41674;52.290;-1.474;2024-03-06T00:48:35;101253.54;;;7.18;65.49
55755;BME280;41674;52.290;-1.474;2024-03-06T00:51:06;101252.02;;;7.51;64.18
55755;BME280;41674;52.290;-1.474;2024-03-06T00:53:35;101253.51;;;6.53;67.47
55755;BME280;41674;52.290;-1.474;2024-03-06T00:56:03;101253.57;;;7.22;64.46
55755;BME280;41674;52.290;-1.474;2024-03-06T00:58:32;101254.52;;;7.45;64.82
55755;BME280;41674;52.290;-1.474;2024-03-06T01:01:03;101253.75;;;6.94;66.47
55755;BME280;41674;52.290;-1.474;2024-03-06T01:03:30;101250.13;;;6.86;69.52
55755;BME280;41674;52.290;-1.474;2024-03-06T01:06:00;101248.14;;;6.71;71.05
55755;BME280;41674;52.290;-1.474;2024-03-06T01:08:30;101250.56;;;6.27;73.17
55755;BME280;41674;52.290;-1.474;2024-03-06T01:10:59;101264.45;;;5.44;75.86
55755;BME280;41674;52.290;-1.474;2024-03-06T01:13:28;101260.14;;;6.39;74.17
55755;BME280;41674;52.290;-1.474;2024-03-06T01:15:57;101259.53;;;6.77;71.88
55755;BME280;41674;52.290;-1.474;2024-03-06T01:18:26;101260.57;;;6.50;73.33
55755;BME280;41674;52.290;-1.474;2024-03-06T01:20:56;101261.61;;;6.72;72.16
55755;BME280;41674;52.290;-1.474;2024-03-06T01:23:26;101269.54;;;5.64;75.45
55755;BME280;41674;52.290;-1.474;2024-03-06T01:25:55;101261.41;;;6.35;72.29
55755;BME280;41674;52.290;-1.474;2024-03-06T01:28:24;101261.89;;;6.73;71.94
55755;BME280;41674;52.290;-1.474;2024-03-06T01:30:54;101265.89;;;6.35;72.61
55755;BME280;41674;52.290;-1.474;2024-03-06T01:33:24;101268.79;;;6.27;72.86
55755;BME280;41674;52.290;-1.474;2024-03-06T01:35:57;101265.81;;;6.36;72.38
55755;BME280;41674;52.290;-1.474;2024-03-06T01:38:24;101268.86;;;6.05;72.05
55755;BME280;41674;52.290;-1.474;2024-03-06T01:40:52;101267.40;;;6.24;71.53
55755;BME280;41674;52.290;-1.474;2024-03-06T01:43:23;101267.85;;;6.11;70.52
55755;BME280;41674;52.290;-1.474;2024-03-06T01:45:53;101268.15;;;6.06;71.01
55755;BME280;41674;52.290;-1.474;2024-03-06T01:48:23;101267.78;;;5.72;70.69
55755;BME280;41674;52.290;-1.474;2024-03-06T01:50:56;101266.90;;;6.10;70.82
55755;BME280;41674;52.290;-1.474;2024-03-06T01:53:20;101269.47;;;5.86;71.15
55755;BME280;41674;52.290;-1.474;2024-03-06T01:55:49;101269.50;;;5.43;70.99
55755;BME280;41674;52.290;-1.474;2024-03-06T01:58:19;101269.29;;;5.60;72.05
55755;BME280;41674;52.290;-1.474;2024-03-06T02:00:50;101269.72;;;5.23;72.64
55755;BME280;41674;52.290;-1.474;2024-03-06T02:03:18;101270.10;;;5.94;71.24
55755;BME280;41674;52.290;-1.474;2024-03-06T02:05:48;101270.52;;;5.85;70.75
55755;BME280;41674;52.290;-1.474;2024-03-06T02:08:16;101274.46;;;5.82;70.46
55755;BME280;41674;52.290;-1.474;2024-03-06T02:10:46;101277.20;;;5.86;69.78
55755;BME280;41674;52.290;-1.474;2024-03-06T02:13:16;101279.38;;;5.46;70.39
55755;BME280;41674;52.290;-1.474;2024-03-06T02:15:45;101278.23;;;5.67;69.72
55755;BME280;41674;52.290;-1.474;2024-03-06T02:18:14;101278.60;;;5.35;70.34
55755;BME280;41674;52.290;-1.474;2024-03-06T02:20:43;101280.73;;;4.86;72.03
55755;BME280;41674;52.290;-1.474;2024-03-06T02:23:13;101282.44;;;5.21;71.71
55755;BME280;41674;52.290;-1.474;2024-03-06T02:25:43;101280.11;;;4.98;70.61
55755;BME280;41674;52.290;-1.474;2024-03-06T02:28:12;101279.24;;;5.18;69.53
55755;BME280;41674;52.290;-1.474;2024-03-06T02:30:41;101280.84;;;4.68;71.06
55755;BME280;41674;52.290;-1.474;2024-03-06T02:33:11;101282.75;;;4.36;72.44
55755;BME280;41674;52.290;-1.474;2024-03-06T02:35:40;101289.43;;;3.38;75.88
55755;BME280;41674;52.290;-1.474;2024-03-06T02:38:09;101283.68;;;4.29;73.12
55755;BME280;41674;52.290;-1.474;2024-03-06T02:40:38;101277.33;;;4.59;72.38
55755;BME280;41674;52.290;-1.474;2024-03-06T02:43:10;101280.69;;;4.67;73.18
55755;BME280;41674;52.290;-1.474;2024-03-06T02:45:38;101282.32;;;4.61;73.54
55755;BME280;41674;52.290;-1.474;2024-03-06T02:48:07;101283.24;;;4.89;72.62
55755;BME280;41674;52.290;-1.474;2024-03-06T02:50:36;101284.78;;;5.03;73.04
55755;BME280;41674;52.290;-1.474;2024-03-06T02:53:06;101283.08;;;4.98;73.80
55755;BME280;41674;52.290;-1.474;2024-03-06T02:55:36;101279.76;;;4.53;73.65
55755;BME280;41674;52.290;-1.474;2024-03-06T02:58:05;101275.80;;;4.43;74.01
55755;BME280;41674;52.290;-1.474;2024-03-06T03:00:34;101272.32;;;4.78;71.98
55755;BME280;41674;52.290;-1.474;2024-03-06T03:03:05;101274.74;;;4.18;74.64
55755;BME280;41674;52.290;-1.474;2024-03-06T03:05:33;101272.03;;;4.58;73.67
55755;BME280;41674;52.290;-1.474;2024-03-06T03:08:03;101272.09;;;4.95;72.45
55755;BME280;41674;52.290;-1.474;2024-03-06T03:10:32;101271.98;;;4.91;72.60
55755;BME280;41674;52.290;-1.474;2024-03-06T03:13:02;101273.95;;;5.03;72.47
55755;BME280;41674;52.290;-1.474;2024-03-06T03:15:31;101275.79;;;4.77;72.57
55755;BME280;41674;52.290;-1.474;2024-03-06T03:18:01;101280.05;;;4.26;73.20
55755;BME280;41674;52.290;-1.474;2024-03-06T03:20:30;101276.30;;;4.83;72.03
55755;BME280;41674;52.290;-1.474;2024-03-06T03:23:00;101276.10;;;4.63;71.99
55755;BME280;41674;52.290;-1.474;2024-03-06T03:25:29;101274.73;;;4.66;73.02
55755;BME280;41674;52.290;-1.474;2024-03-06T03:27:59;101274.94;;;4.79;72.57
55755;BME280;41674;52.290;-1.474;2024-03-06T03:30:28;101274.76;;;4.37;73.50
55755;BME280;41674;52.290;-1.474;2024-03-06T03:32:58;101272.18;;;4.54;71.12
55755;BME280;41674;52.290;-1.474;2024-03-06T03:35:27;101269.90;;;3.93;72.61
55755;BME280;41674;52.290;-1.474;2024-03-06T03:37:58;101267.99;;;4.04;71.11
55755;BME280;41674;52.290;-1.474;2024-03-06T03:40:26;101268.56;;;4.24;71.58
55755;BME280;41674;52.290;-1.474;2024-03-06T03:42:55;101269.57;;;4.05;72.27
55755;BME280;41674;52.290;-1.474;2024-03-06T03:45:24;101272.17;;;4.27;72.26
55755;BME280;41674;52.290;-1.474;2024-03-06T03:47:54;101268.29;;;4.36;69.65
55755;BME280;41674;52.290;-1.474;2024-03-06T03:50:23;101272.13;;;3.83;73.02
55755;BME280;41674;52.290;-1.474;2024-03-06T03:52:57;101274.40;;;3.48;74.97
55755;BME280;41674;52.290;-1.474;2024-03-06T03:55:23;101272.66;;;3.75;73.53
55755;BME280;41674;52.290;-1.474;2024-03-06T03:57:54;101273.01;;;4.22;72.65
55755;BME280;41674;52.290;-1.474;2024-03-06T04:00:22;101277.32;;;4.01;74.83
55755;BME280;41674;52.290;-1.474;2024-03-06T04:02:51;101283.27;;;3.46;77.46
55755;BME280;41674;52.290;-1.474;2024-03-06T04:05:20;101282.29;;;4.04;74.67
55755;BME280;41674;52.290;-1.474;2024-03-06T04:07:49;101285.01;;;4.09;75.87
55755;BME280;41674;52.290;-1.474;2024-03-06T04:10:21;101289.54;;;3.72;78.93
55755;BME280;41674;52.290;-1.474;2024-03-06T04:12:48;101290.18;;;4.25;76.52
55755;BME280;41674;52.290;-1.474;2024-03-06T04:15:18;101289.09;;;4.14;77.82
55755;BME280;41674;52.290;-1.474;2024-03-06T04:17:47;101288.06;;;3.95;78.17
55755;BME280;41674;52.290;-1.474;2024-03-06T04:20:19;101288.23;;;3.70;79.74
55755;BME280;41674;52.290;-1.474;2024-03-06T04:22:48;101286.01;;;3.85;78.94
55755;BME280;41674;52.290;-1.474;2024-03-06T04:25:15;101283.96;;;3.56;78.92
55755;BME280;41674;52.290;-1.474;2024-03-06T04:27:44;101287.37;;;4.05;77.88
55755;BME280;41674;52.290;-1.474;2024-03-06T04:30:15;101291.51;;;3.14;80.04
55755;BME280;41674;52.290;-1.474;2024-03-06T04:32:44;101287.92;;;3.91;77.54
55755;BME280;41674;52.290;-1.474;2024-03-06T04:35:13;101290.20;;;4.05;77.20
55755;BME280;41674;52.290;-1.474;2024-03-06T04:37:44;101295.04;;;3.83;77.53
55755;BME280;41674;52.290;-1.474;2024-03-06T04:40:12;101299.81;;;3.27;79.45
55755;BME280;41674;52.290;-1.474;2024-03-06T04:42:41;101301.92;;;3.48;79.27
55755;BME280;41674;52.290;-1.474;2024-03-06T04:45:15;101305.80;;;3.06;80.05
55755;BME280;41674;52.290;-1.474;2024-03-06T04:47:40;101304.46;;;3.31;80.95
55755;BME280;41674;52.290;-1.474;2024-03-06T04:50:10;101307.03;;;3.52;77.93
55755;BME280;41674;52.290;-1.474;2024-03-06T04:52:39;101307.42;;;3.46;78.09
55755;BME280;41674;52.290;-1.474;2024-03-06T04:55:09;101308.90;;;3.65;78.05
55755;BME280;41674;52.290;-1.474;2024-03-06T04:57:38;101309.26;;;3.28;78.19
55755;BME280;41674;52.290;-1.474;2024-03-06T05:00:10;101309.44;;;4.26;76.78
55755;BME280;41674;52.290;-1.474;2024-03-06T05:02:36;101313.33;;;3.87;75.78
55755;BME280;41674;52.290;-1.474;2024-03-06T05:05:05;101317.74;;;3.44;77.08
55755;BME280;41674;52.290;-1.474;2024-03-06T05:07:35;101321.46;;;3.37;77.45
55755;BME280;41674;52.290;-1.474;2024-03-06T05:10:06;101323.69;;;3.26;78.00
55755;BME280;41674;52.290;-1.474;2024-03-06T05:12:35;101325.97;;;2.84;79.55
55755;BME280;41674;52.290;-1.474;2024-03-06T05:15:04;101330.01;;;1.75;83.95
55755;BME280;41674;52.290;-1.474;2024-03-06T05:17:33;101325.66;;;2.86;80.59
55755;BME280;41674;52.290;-1.474;2024-03-06T05:20:03;101328.07;;;1.91;83.82
55755;BME280;41674;52.290;-1.474;2024-03-06T05:22:32;101330.37;;;3.59;78.02
55755;BME280;41674;52.290;-1.474;2024-03-06T05:25:04;101335.97;;;3.31;77.29
55755;BME280;41674;52.290;-1.474;2024-03-06T05:27:31;101336.26;;;3.86;77.41
55755;BME280;41674;52.290;-1.474;2024-03-06T05:30:01;101337.77;;;4.07;76.28
55755;BME280;41674;52.290;-1.474;2024-03-06T05:32:30;101343.60;;;3.14;79.03
55755;BME280;41674;52.290;-1.474;2024-03-06T05:35:00;101345.31;;;3.16;79.73
55755;BME280;41674;52.290;-1.474;2024-03-06T05:37:30;101346.39;;;3.29;78.61
55755;BME280;41674;52.290;-1.474;2024-03-06T05:39:59;101348.47;;;3.24;77.62
55755;BME280;41674;52.290;-1.474;2024-03-06T05:42:30;101351.15;;;3.27;78.01
55755;BME280;41674;52.290;-1.474;2024-03-06T05:44:58;101352.45;;;3.77;78.44
55755;BME280;41674;52.290;-1.474;2024-03-06T05:47:27;101353.97;;;2.94;79.51
55755;BME280;41674;52.290;-1.474;2024-03-06T05:49:56;101355.26;;;3.25;79.66
55755;BME280;41674;52.290;-1.474;2024-03-06T05:52:25;101357.98;;;3.47;79.71
55755;BME280;41674;52.290;-1.474;2024-03-06T05:54:55;101362.12;;;3.04;80.21
55755;BME280;41674;52.290;-1.474;2024-03-06T05:57:25;101360.25;;;3.29;79.33
55755;BME280;41674;52.290;-1.474;2024-03-06T05:59:54;101363.58;;;3.30;80.93
55755;BME280;41674;52.290;-1.474;2024-03-06T06:02:25;101364.74;;;3.19;81.14
55755;BME280;41674;52.290;-1.474;2024-03-06T06:04:53;101366.37;;;2.59;83.88
55755;BME280;41674;52.290;-1.474;2024-03-06T06:07:23;101364.55;;;2.43;84.81
55755;BME280;41674;52.290;-1.474;2024-03-06T06:09:52;101362.00;;;2.69;85.22
55755;BME280;41674;52.290;-1.474;2024-03-06T06:12:21;101364.74;;;2.64;84.90
55755;BME280;41674;52.290;-1.474;2024-03-06T06:14:51;101368.88;;;3.06;84.24
55755;BME280;41674;52.290;-1.474;2024-03-06T06:17:20;101376.56;;;2.77;84.72
55755;BME280;41674;52.290;-1.474;2024-03-06T06:19:51;101379.90;;;3.18;84.56
55755;BME280;41674;52.290;-1.474;2024-03-06T06:22:19;101379.68;;;3.19;84.06
55755;BME280;41674;52.290;-1.474;2024-03-06T06:24:48;101384.12;;;3.41;81.75
55755;BME280;41674;52.290;-1.474;2024-03-06T06:27:18;101388.48;;;2.84;84.85
55755;BME280;41674;52.290;-1.474;2024-03-06T06:29:48;101398.59;;;0.96;93.88
55755;BME280;41674;52.290;-1.474;2024-03-06T06:32:17;101396.16;;;2.55;87.88
55755;BME280;41674;52.290;-1.474;2024-03-06T06:34:48;101395.29;;;3.13;84.87
55755;BME280;41674;52.290;-1.474;2024-03-06T06:37:17;101401.81;;;3.64;84.30
55755;BME280;41674;52.290;-1.474;2024-03-06T06:39:46;101399.29;;;3.75;83.21
55755;BME280;41674;52.290;-1.474;2024-03-06T06:42:15;101396.21;;;3.28;84.63
55755;BME280;41674;52.290;-1.474;2024-03-06T06:44:45;101396.09;;;3.67;82.58
55755;BME280;41674;52.290;-1.474;2024-03-06T06:47:17;101398.95;;;3.77;82.73
55755;BME280;41674;52.290;-1.474;2024-03-06T06:49:44;101401.74;;;3.76;82.86
55755;BME280;41674;52.290;-1.474;2024-03-06T06:52:14;101398.65;;;3.92;80.95
55755;BME280;41674;52.290;-1.474;2024-03-06T06:54:44;101401.21;;;4.22;79.34
55755;BME280;41674;52.290;-1.474;2024-03-06T06:57:13;101403.43;;;3.61;81.38
55755;BME280;41674;52.290;-1.474;2024-03-06T06:59:42;101403.87;;;4.15;80.40
55755;BME280;41674;52.290;-1.474;2024-03-06T07:02:11;101403.68;;;4.06;80.39
55755;BME280;41674;52.290;-1.474;2024-03-06T07:04:42;101403.67;;;4.01;81.26
55755;BME280;41674;52.290;-1.474;2024-03-06T07:07:10;101405.92;;;3.87;81.91
55755;BME280;41674;52.290;-1.474;2024-03-06T07:09:39;101414.17;;;3.54;82.56
55755;BME280;41674;52.290;-1.474;2024-03-06T07:12:09;101418.78;;;3.57;82.93
55755;BME280;41674;52.290;-1.474;2024-03-06T07:14:38;101417.78;;;3.44;83.63
55755;BME280;41674;52.290;-1.474;2024-03-06T07:17:08;101420.73;;;2.35;87.41
55755;BME280;41674;52.290;-1.474;2024-03-06T07:19:39;101418.72;;;3.74;83.33
55755;BME280;41674;52.290;-1.474;2024-03-06T07:22:07;101423.92;;;3.42;84.92
55755;BME280;41674;52.290;-1.474;2024-03-06T07:24:36;101428.55;;;3.58;84.47
55755;BME280;41674;52.290;-1.474;2024-03-06T07:27:06;101431.42;;;3.56;85.41
55755;BME280;41674;52.290;-1.474;2024-03-06T07:29:35;101435.99;;;2.03;91.22
55755;BME280;41674;52.290;-1.474;2024-03-06T07:32:05;101433.49;;;1.85;92.23
55755;BME280;41674;52.290;-1.474;2024-03-06T07:34:34;101428.34;;;3.63;85.78
55755;BME280;41674;52.290;-1.474;2024-03-06T07:37:04;101428.54;;;4.48;83.42
55755;BME280;41674;52.290;-1.474;2024-03-06T07:39:33;101428.84;;;4.23;82.84
55755;BME280;41674;52.290;-1.474;2024-03-06T07:42:05;101432.88;;;4.45;81.46
55755;BME280;41674;52.290;-1.474;2024-03-06T07:44:32;101435.27;;;4.54;81.34
55755;BME280;41674;52.290;-1.474;2024-03-06T07:47:01;101433.70;;;4.31;82.15
55755;BME280;41674;52.290;-1.474;2024-03-06T07:49:31;101437.01;;;4.60;81.43
55755;BME280;41674;52.290;-1.474;2024-03-06T07:52:00;101438.39;;;4.81;80.17
55755;BME280;41674;52.290;-1.474;2024-03-06T07:54:30;101435.44;;;4.61;81.09
55755;BME280;41674;52.290;-1.474;2024-03-06T07:56:59;101438.74;;;4.78;80.94
55755;BME280;41674;52.290;-1.474;2024-03-06T07:59:28;101443.74;;;4.56;82.90
55755;BME280;41674;52.290;-1.474;2024-03-06T08:01:58;101445.21;;;4.31;82.49
55755;BME280;41674;52.290;-1.474;2024-03-06T08:04:27;101444.43;;;4.40;82.96
55755;BME280;41674;52.290;-1.474;2024-03-06T08:06:58;101441.47;;;4.67;82.59
55755;BME280;41674;52.290;-1.474;2024-03-06T08:09:26;101439.25;;;4.86;81.79
55755;BME280;41674;52.290;-1.474;2024-03-06T08:11:55;101436.66;;;4.76;81.26
55755;BME280;41674;52.290;-1.474;2024-03-06T08:14:25;101440.54;;;4.55;82.91
55755;BME280;41674;52.290;-1.474;2024-03-06T08:16:54;101436.38;;;5.03;81.26
55755;BME280;41674;52.290;-1.474;2024-03-06T08:19:24;101443.79;;;4.54;82.05
55755;BME280;41674;52.290;-1.474;2024-03-06T08:21:53;101438.80;;;4.91;81.08
55755;BME280;41674;52.290;-1.474;2024-03-06T08:24:22;101436.21;;;5.20;80.51
55755;BME280;41674;52.290;-1.474;2024-03-06T08:26:52;101435.61;;;4.83;82.58
55755;BME280;41674;52.290;-1.474;2024-03-06T08:29:22;101442.89;;;4.51;83.52
55755;BME280;41674;52.290;-1.474;2024-03-06T08:31:52;101444.51;;;4.80;84.24
55755;BME280;41674;52.290;-1.474;2024-03-06T08:34:21;101445.33;;;4.65;83.98
55755;BME280;41674;52.290;-1.474;2024-03-06T08:36:51;101443.61;;;5.21;83.20
55755;BME280;41674;52.290;-1.474;2024-03-06T08:39:20;101441.24;;;5.51;82.48
55755;BME280;41674;52.290;-1.474;2024-03-06T08:41:49;101441.93;;;5.39;81.62
55755;BME280;41674;52.290;-1.474;2024-03-06T08:44:18;101448.55;;;3.80;88.74
55755;BME280;41674;52.290;-1.474;2024-03-06T08:46:47;101456.08;;;3.66;92.94
55755;BME280;41674;52.290;-1.474;2024-03-06T08:49:20;101462.35;;;4.98;88.06
55755;BME280;41674;52.290;-1.474;2024-03-06T08:51:45;101459.01;;;4.94;87.38
55755;BME280;41674;52.290;-1.474;2024-03-06T08:54:15;101460.52;;;4.59;88.82
55755;BME280;41674;52.290;-1.474;2024-03-06T08:56:45;101461.99;;;4.66;88.53
55755;BME280;41674;52.290;-1.474;2024-03-06T08:59:14;101460.32;;;5.35;85.57
55755;BME280;41674;52.290;-1.474;2024-03-06T09:01:43;101461.06;;;6.00;83.41
55755;BME280;41674;52.290;-1.474;2024-03-06T09:04:13;101461.71;;;5.45;84.20
55755;BME280;41674;52.290;-1.474;2024-03-06T09:06:42;101466.11;;;6.10;82.33
55755;BME280;41674;52.290;-1.474;2024-03-06T09:09:14;101469.29;;;6.23;82.52
55755;BME280;41674;52.290;-1.474;2024-03-06T09:11:42;101472.94;;;6.44;81.59
55755;BME280;41674;52.290;-1.474;2024-03-06T09:14:11;101476.95;;;5.73;85.55
55755;BME280;41674;52.290;-1.474;2024-03-06T09:16:40;101484.25;;;5.26;89.74
55755;BME280;41674;52.290;-1.474;2024-03-06T09:19:10;101493.69;;;4.19;94.30
55755;BME280;41674;52.290;-1.474;2024-03-06T09:21:40;101500.08;;;4.68;93.11
55755;BME280;41674;52.290;-1.474;2024-03-06T09:24:09;101495.97;;;5.36;91.05
55755;BME280;41674;52.290;-1.474;2024-03-06T09:26:40;101499.75;;;5.50;89.31
55755;BME280;41674;52.290;-1.474;2024-03-06T09:29:08;101498.33;;;5.56;89.97
55755;BME280;41674;52.290;-1.474;2024-03-06T09:31:37;101496.16;;;5.97;88.56
55755;BME280;41674;52.290;-1.474;2024-03-06T09:34:08;101498.83;;;6.39;88.56
55755;BME280;41674;52.290;-1.474;2024-03-06T09:36:36;101500.55;;;5.15;91.17
55755;BME280;41674;52.290;-1.474;2024-03-06T09:39:07;101500.18;;;5.95;88.77
55755;BME280;41674;52.290;-1.474;2024-03-06T09:41:35;101502.73;;;6.29;87.38
55755;BME280;41674;52.290;-1.474;2024-03-06T09:44:04;101502.63;;;6.42;86.06
55755;BME280;41674;52.290;-1.474;2024-03-06T09:46:34;101510.48;;;7.17;84.90
55755;BME280;41674;52.290;-1.474;2024-03-06T09:49:03;101514.71;;;7.10;85.24
55755;BME280;41674;52.290;-1.474;2024-03-06T09:51:35;101516.49;;;7.21;85.11
55755;BME280;41674;52.290;-1.474;2024-03-06T09:54:02;101514.34;;;6.51;86.87
55755;BME280;41674;52.290;-1.474;2024-03-06T09:56:31;101516.62;;;6.89;85.89
55755;BME280;41674;52.290;-1.474;2024-03-06T09:59:03;101514.44;;;7.46;84.36
55755;BME280;41674;52.290;-1.474;2024-03-06T10:01:33;101514.14;;;7.43;84.85
55755;BME280;41674;52.290;-1.474;2024-03-06T10:03:59;101514.83;;;7.49;85.65
55755;BME280;41674;52.290;-1.474;2024-03-06T10:06:29;101517.53;;;6.87;87.70
55755;BME280;41674;52.290;-1.474;2024-03-06T10:09:04;101516.45;;;7.91;84.54
55755;BME280;41674;52.290;-1.474;2024-03-06T10:11:28;101519.71;;;7.55;85.82
55755;BME280;41674;52.290;-1.474;2024-03-06T10:13:57;101518.66;;;7.90;84.33
55755;BME280;41674;52.290;-1.474;2024-03-06T10:16:27;101520.50;;;7.95;84.95
55755;BME280;41674;52.290;-1.474;2024-03-06T10:18:56;101517.27;;;8.22;84.77
55755;BME280;41674;52.290;-1.474;2024-03-06T10:21:30;101520.14;;;7.74;87.62
55755;BME280;41674;52.290;-1.474;2024-03-06T10:23:58;101524.42;;;5.44;98.70
55755;BME280;41674;52.290;-1.474;2024-03-06T10:28:54;101519.42;;;6.44;95.57
55755;BME280;41674;52.290;-1.474;2024-03-06T10:31:27;101523.99;;;6.51;94.47
55755;BME280;41674;52.290;-1.474;2024-03-06T10:33:53;101526.33;;;7.48;91.78
55755;BME280;41674;52.290;-1.474;2024-03-06T10:36:26;101526.74;;;7.64;91.34
55755;BME280;41674;52.290;-1.474;2024-03-06T10:38:54;101527.85;;;7.79;91.55
55755;BME280;41674;52.290;-1.474;2024-03-06T10:41:23;101522.86;;;8.41;88.42
55755;BME280;41674;52.290;-1.474;2024-03-06T10:43:53;101518.92;;;7.91;88.46
55755;BME280;41674;52.290;-1.474;2024-03-06T10:46:23;101521.22;;;8.03;88.86
55755;BME280;41674;52.290;-1.474;2024-03-06T10:48:51;101521.20;;;8.36;87.24
55755;BME280;41674;52.290;-1.474;2024-03-06T10:51:21;101528.34;;;6.89;97.15
55755;BME280;41674;52.290;-1.474;2024-03-06T10:53:50;101526.18;;;7.50;91.78
55755;BME280;41674;52.290;-1.474;2024-03-06T10:56:21;101530.45;;;7.18;94.97
55755;BME280;41674;52.290;-1.474;2024-03-06T10:58:52;101523.34;;;8.04;91.78
55755;BME280;41674;52.290;-1.474;2024-03-06T11:01:20;101520.52;;;8.12;89.98
55755;BME280;41674;52.290;-1.474;2024-03-06T11:03:47;101522.61;;;8.95;86.45
55755;BME280;41674;52.290;-1.474;2024-03-06T11:06:17;101524.86;;;8.28;88.83
55755;BME280;41674;52.290;-1.474;2024-03-06T11:08:46;101532.60;;;7.40;91.68
55755;BME280;41674;52.290;-1.474;2024-03-06T11:11:21;101525.36;;;8.35;89.28
55755;BME280;41674;52.290;-1.474;2024-03-06T11:13:46;101531.16;;;7.03;92.96
55755;BME280;41674;52.290;-1.474;2024-03-06T11:16:16;101525.43;;;8.09;87.95
55755;BME280;41674;52.290;-1.474;2024-03-06T11:18:44;101532.44;;;6.41;95.55
55755;BME280;41674;52.290;-1.474;2024-03-06T11:26:12;101542.17;;;7.43;90.56
55755;BME280;41674;52.290;-1.474;2024-03-06T11:28:42;101539.86;;;7.30;89.90
55755;BME280;41674;52.290;-1.474;2024-03-06T11:31:12;101538.20;;;7.55;89.11
55755;BME280;41674;52.290;-1.474;2024-03-06T11:33:42;101534.93;;;8.21;85.21
55755;BME280;41674;52.290;-1.474;2024-03-06T11:36:17;101542.79;;;6.27;92.94
55755;BME280;41674;52.290;-1.474;2024-03-06T11:38:39;101544.47;;;7.47;85.92
55755;BME280;41674;52.290;-1.474;2024-03-06T11:41:09;101544.13;;;7.99;86.63
55755;BME280;41674;52.290;-1.474;2024-03-06T11:43:44;101542.61;;;8.74;82.31
55755;BME280;41674;52.290;-1.474;2024-03-06T11:46:09;101546.05;;;7.74;85.58
55755;BME280;41674;52.290;-1.474;2024-03-06T11:48:37;101540.57;;;8.77;81.15
55755;BME280;41674;52.290;-1.474;2024-03-06T11:51:07;101540.40;;;9.37;80.85
55755;BME280;41674;52.290;-1.474;2024-03-06T11:53:35;101541.07;;;8.92;80.42
55755;BME280;41674;52.290;-1.474;2024-03-06T11:56:07;101541.32;;;8.02;80.97
55755;BME280;41674;52.290;-1.474;2024-03-06T11:58:34;101541.65;;;9.44;77.44
55755;BME280;41674;52.290;-1.474;2024-03-06T12:01:04;101543.40;;;8.99;79.56
55755;BME280;41674;52.290;-1.474;2024-03-06T12:03:33;101542.05;;;8.17;83.18
55755;BME280;41674;52.290;-1.474;2024-03-06T12:06:03;101539.82;;;8.92;78.19
55755;BME280;41674;52.290;-1.474;2024-03-06T12:08:33;101538.05;;;9.16;78.47
55755;BME280;41674;52.290;-1.474;2024-03-06T12:11:02;101539.59;;;9.68;79.13
55755;BME280;41674;52.290;-1.474;2024-03-06T12:13:31;101546.17;;;7.48;87.74
55755;BME280;41674;52.290;-1.474;2024-03-06T12:16:05;101541.09;;;8.33;83.94
55755;BME280;41674;52.290;-1.474;2024-03-06T12:21:02;101536.39;;;9.24;80.63
55755;BME280;41674;52.290;-1.474;2024-03-06T12:23:30;101535.02;;;8.55;80.46
55755;BME280;41674;52.290;-1.474;2024-03-06T12:26:03;101533.68;;;9.25;76.63
55755;BME280;41674;52.290;-1.474;2024-03-06T12:28:28;101529.65;;;10.63;71.72
55755;BME280;41674;52.290;-1.474;2024-03-06T12:30:58;101534.94;;;8.89;79.83
55755;BME280;41674;52.290;-1.474;2024-03-06T12:33:27;101529.94;;;9.30;75.95
55755;BME280;41674;52.290;-1.474;2024-03-06T12:36:04;101533.35;;;9.35;75.63
55755;BME280;41674;52.290;-1.474;2024-03-06T12:38:28;101530.87;;;9.22;75.72
55755;BME280;41674;52.290;-1.474;2024-03-06T12:40:55;101528.27;;;9.56;74.07
55755;BME280;41674;52.290;-1.474;2024-03-06T12:43:25;101526.60;;;9.62;74.35
55755;BME280;41674;52.290;-1.474;2024-03-06T12:45:54;101528.58;;;9.72;72.92
55755;BME280;41674;52.290;-1.474;2024-03-06T12:48:24;101520.72;;;9.76;73.76
55755;BME280;41674;52.290;-1.474;2024-03-06T12:50:53;101525.25;;;9.16;77.61
55755;BME280;41674;52.290;-1.474;2024-03-06T12:53:22;101520.60;;;9.97;73.64
55755;BME280;41674;52.290;-1.474;2024-03-06T12:55:53;101521.40;;;8.55;80.75
55755;BME280;41674;52.290;-1.474;2024-03-06T12:58:21;101520.92;;;9.01;79.39
55755;BME280;41674;52.290;-1.474;2024-03-06T13:00:50;101521.39;;;9.29;76.14
55755;BME280;41674;52.290;-1.474;2024-03-06T13:03:20;101518.84;;;10.25;74.73
55755;BME280;41674;52.290;-1.474;2024-03-06T13:05:49;101511.51;;;10.11;74.06
55755;BME280;41674;52.290;-1.474;2024-03-06T13:08:18;101513.75;;;9.73;76.87
55755;BME280;41674;52.290;-1.474;2024-03-06T13:10:48;101510.36;;;10.23;75.38